sensor_id;sensor_type;location;lat;lon;timestamp;temperature;humidity
26990;DHT22;14537;47.788;11.858;2023-12-04T00:00:13;-12.70;99.90
26990;DHT22;14537;47.788;11.858;2023-12-04T00:02:40;-12.70;99.90
26990;DHT22;14537;47.788;11.858;2023-12-04T00:05:06;-12.60;99.90
26990;DHT22;14537;47.788;11.858;2023-12-04T00:07:32;-12.50;99.90
26990;DHT22;14537;47.788;11.858;2023-12-04T00:09:58;-12.40;99.90
26990;DHT22;14537;47.788;11.858;2023-12-04T00:12:23;-12.60;99.90
26990;DHT22;14537;47.788;11.858;2023-12-04T00:14:49;-12.70;99.90
26990;DHT22;14537;47.788;11.858;2023-12-04T00:17:16;-12.70;99.90
26990;DHT22;14537;47.788;11.858;2023-12-04T00:19:42;-12.50;99.90
26990;DHT22;14537;47.788;11.858;2023-12-04T00:22:07;-12.30;99.90
26990;DHT22;14537;47.788;11.858;2023-12-04T00:24:33;-12.40;99.90
26990;DHT22;14537;47.788;11.858;2023-12-04T00:26:59;-12.70;99.90
26990;DHT22;14537;47.788;11.858;2023-12-04T00:29:24;-12.80;99.90
26990;DHT22;14537;47.788;11.858;2023-12-04T00:31:50;-12.70;99.90
26990;DHT22;14537;47.788;11.858;2023-12-04T00:34:15;-12.70;99.90
26990;DHT22;14537;47.788;11.858;2023-12-04T00:36:41;-12.60;99.90
26990;DHT22;14537;47.788;11.858;2023-12-04T00:39:06;-12.60;99.90
26990;DHT22;14537;47.788;11.858;2023-12-04T00:41:32;-12.50;99.90
26990;DHT22;14537;47.788;11.858;2023-12-04T00:43:58;-12.70;99.90
26990;DHT22;14537;47.788;11.858;2023-12-04T00:46:23;-12.70;99.90
26990;DHT22;14537;47.788;11.858;2023-12-04T00:48:49;-12.70;99.90
26990;DHT22;14537;47.788;11.858;2023-12-04T00:51:15;-12.70;99.90
26990;DHT22;14537;47.788;11.858;2023-12-04T00:53:40;-12.80;99.90
26990;DHT22;14537;47.788;11.858;2023-12-04T00:56:06;-12.80;99.90
26990;DHT22;14537;47.788;11.858;2023-12-04T00:58:32;-12.70;99.90
26990;DHT22;14537;47.788;11.858;2023-12-04T01:00:57;-12.70;99.90
26990;DHT22;14537;47.788;11.858;2023-12-04T01:03:23;-12.60;99.90
26990;DHT22;14537;47.788;11.858;2023-12-04T01:05:51;-12.50;99.90
26990;DHT22;14537;47.788;11.858;2023-12-04T01:08:17;-12.40;99.90
26990;DHT22;14537;47.788;11.858;2023-12-04T01:10:43;-12.40;99.90
26990;DHT22;14537;47.788;11.858;2023-12-04T01:13:08;-12.50;99.90
26990;DHT22;14537;47.788;11.858;2023-12-04T01:15:34;-12.70;99.90
26990;DHT22;14537;47.788;11.858;2023-12-04T01:18:00;-12.70;99.90
26990;DHT22;14537;47.788;11.858;2023-12-04T01:20:28;-13.00;99.90
26990;DHT22;14537;47.788;11.858;2023-12-04T01:22:54;-13.10;99.90
26990;DHT22;14537;47.788;11.858;2023-12-04T01:25:19;-13.00;99.90
26990;DHT22;14537;47.788;11.858;2023-12-04T01:27:45;-12.90;99.90
26990;DHT22;14537;47.788;11.858;2023-12-04T01:30:11;-12.90;99.90
26990;DHT22;14537;47.788;11.858;2023-12-04T01:32:37;-12.80;99.90
26990;DHT22;14537;47.788;11.858;2023-12-04T01:35:03;-12.90;99.90
26990;DHT22;14537;47.788;11.858;2023-12-04T01:37:30;-13.10;99.90
26990;DHT22;14537;47.788;11.858;2023-12-04T01:39:55;-13.10;99.90
26990;DHT22;14537;47.788;11.858;2023-12-04T01:42:21;-13.00;99.90
26990;DHT22;14537;47.788;11.858;2023-12-04T01:44:46;-13.20;99.90
26990;DHT22;14537;47.788;11.858;2023-12-04T01:47:12;-13.20;99.90
26990;DHT22;14537;47.788;11.858;2023-12-04T01:49:38;-13.10;99.90
26990;DHT22;14537;47.788;11.858;2023-12-04T01:52:04;-12.90;99.90
26990;DHT22;14537;47.788;11.858;2023-12-04T01:54:31;-12.90;99.90
26990;DHT22;14537;47.788;11.858;2023-12-04T01:56:57;-12.90;99.90
26990;DHT22;14537;47.788;11.858;2023-12-04T01:59:25;-12.70;99.90
26990;DHT22;14537;47.788;11.858;2023-12-04T02:01:52;-12.50;99.90
26990;DHT22;14537;47.788;11.858;2023-12-04T02:04:18;-12.40;99.90
26990;DHT22;14537;47.788;11.858;2023-12-04T02:06:44;-12.30;99.90
26990;DHT22;14537;47.788;11.858;2023-12-04T02:09:09;-12.20;99.90
26990;DHT22;14537;47.788;11.858;2023-12-04T02:11:39;-12.30;99.90
26990;DHT22;14537;47.788;11.858;2023-12-04T02:14:06;-12.20;99.90
26990;DHT22;14537;47.788;11.858;2023-12-04T02:16:33;-12.10;99.90
26990;DHT22;14537;47.788;11.858;2023-12-04T02:19:00;-12.00;99.90
26990;DHT22;14537;47.788;11.858;2023-12-04T02:21:26;-11.90;99.90
26990;DHT22;14537;47.788;11.858;2023-12-04T02:23:52;-11.80;99.90
26990;DHT22;14537;47.788;11.858;2023-12-04T02:26:22;-12.00;99.90
26990;DHT22;14537;47.788;11.858;2023-12-04T02:28:55;-12.40;99.90
26990;DHT22;14537;47.788;11.858;2023-12-04T02:31:24;-12.70;99.90
26990;DHT22;14537;47.788;11.858;2023-12-04T02:33:52;-12.70;99.90
26990;DHT22;14537;47.788;11.858;2023-12-04T02:36:23;-12.50;99.90
26990;DHT22;14537;47.788;11.858;2023-12-04T02:38:50;-12.60;99.90
26990;DHT22;14537;47.788;11.858;2023-12-04T02:41:16;-12.60;99.90
26990;DHT22;14537;47.788;11.858;2023-12-04T02:43:43;-12.60;99.90
26990;DHT22;14537;47.788;11.858;2023-12-04T02:46:09;-12.50;99.90
26990;DHT22;14537;47.788;11.858;2023-12-04T02:48:35;-12.80;99.90
26990;DHT22;14537;47.788;11.858;2023-12-04T02:51:01;-12.80;99.90
26990;DHT22;14537;47.788;11.858;2023-12-04T02:53:27;-13.00;99.90
26990;DHT22;14537;47.788;11.858;2023-12-04T02:55:53;-13.00;99.90
26990;DHT22;14537;47.788;11.858;2023-12-04T02:58:18;-12.90;99.90
26990;DHT22;14537;47.788;11.858;2023-12-04T03:00:44;-12.80;99.90
26990;DHT22;14537;47.788;11.858;2023-12-04T03:03:10;-12.90;99.90
26990;DHT22;14537;47.788;11.858;2023-12-04T03:05:35;-12.90;99.90
26990;DHT22;14537;47.788;11.858;2023-12-04T03:08:01;-12.80;99.90
26990;DHT22;14537;47.788;11.858;2023-12-04T03:10:27;-12.80;99.90
26990;DHT22;14537;47.788;11.858;2023-12-04T03:12:53;-12.70;99.90
26990;DHT22;14537;47.788;11.858;2023-12-04T03:15:18;-12.70;99.90
26990;DHT22;14537;47.788;11.858;2023-12-04T03:17:45;-12.70;99.90
26990;DHT22;14537;47.788;11.858;2023-12-04T03:20:11;-12.70;99.90
26990;DHT22;14537;47.788;11.858;2023-12-04T03:22:37;-12.70;99.90
26990;DHT22;14537;47.788;11.858;2023-12-04T03:25:03;-12.80;99.90
26990;DHT22;14537;47.788;11.858;2023-12-04T03:27:28;-12.80;99.90
26990;DHT22;14537;47.788;11.858;2023-12-04T03:29:54;-12.90;99.90
26990;DHT22;14537;47.788;11.858;2023-12-04T03:32:20;-13.00;99.90
26990;DHT22;14537;47.788;11.858;2023-12-04T03:34:45;-12.90;99.90
26990;DHT22;14537;47.788;11.858;2023-12-04T03:37:11;-12.70;99.90
26990;DHT22;14537;47.788;11.858;2023-12-04T03:39:37;-12.60;99.90
26990;DHT22;14537;47.788;11.858;2023-12-04T03:42:02;-12.70;99.90
26990;DHT22;14537;47.788;11.858;2023-12-04T03:44:28;-13.10;99.90
26990;DHT22;14537;47.788;11.858;2023-12-04T03:46:54;-13.40;99.90
26990;DHT22;14537;47.788;11.858;2023-12-04T03:49:19;-13.30;99.90
26990;DHT22;14537;47.788;11.858;2023-12-04T03:51:45;-13.10;99.90
26990;DHT22;14537;47.788;11.858;2023-12-04T03:54:10;-13.00;99.90
26990;DHT22;14537;47.788;11.858;2023-12-04T03:56:36;-13.20;99.90
26990;DHT22;14537;47.788;11.858;2023-12-04T03:59:02;-13.40;99.90
26990;DHT22;14537;47.788;11.858;2023-12-04T04:01:28;-13.40;99.90
26990;DHT22;14537;47.788;11.858;2023-12-04T04:03:53;-13.30;99.90
26990;DHT22;14537;47.788;11.858;2023-12-04T04:06:19;-13.10;99.90
26990;DHT22;14537;47.788;11.858;2023-12-04T04:08:45;-12.80;99.90
26990;DHT22;14537;47.788;11.858;2023-12-04T04:11:10;-12.80;99.90
26990;DHT22;14537;47.788;11.858;2023-12-04T04:13:37;-12.80;99.90
26990;DHT22;14537;47.788;11.858;2023-12-04T04:16:03;-13.00;99.90
26990;DHT22;14537;47.788;11.858;2023-12-04T04:18:29;-13.00;99.90
26990;DHT22;14537;47.788;11.858;2023-12-04T04:20:55;-12.80;99.90
26990;DHT22;14537;47.788;11.858;2023-12-04T04:23:20;-12.60;99.90
26990;DHT22;14537;47.788;11.858;2023-12-04T04:25:46;-12.60;99.90
26990;DHT22;14537;47.788;11.858;2023-12-04T04:28:11;-12.70;99.90
26990;DHT22;14537;47.788;11.858;2023-12-04T04:30:37;-12.50;99.90
26990;DHT22;14537;47.788;11.858;2023-12-04T04:33:02;-12.50;99.90
26990;DHT22;14537;47.788;11.858;2023-12-04T04:35:30;-12.50;99.90
26990;DHT22;14537;47.788;11.858;2023-12-04T04:37:55;-12.60;99.90
26990;DHT22;14537;47.788;11.858;2023-12-04T04:40:21;-12.50;99.90
26990;DHT22;14537;47.788;11.858;2023-12-04T04:42:46;-12.30;99.90
26990;DHT22;14537;47.788;11.858;2023-12-04T04:45:12;-12.30;99.90
26990;DHT22;14537;47.788;11.858;2023-12-04T04:47:38;-12.30;99.90
26990;DHT22;14537;47.788;11.858;2023-12-04T04:50:04;-12.30;99.90
26990;DHT22;14537;47.788;11.858;2023-12-04T04:52:29;-12.30;99.90
26990;DHT22;14537;47.788;11.858;2023-12-04T04:54:55;-12.50;99.90
26990;DHT22;14537;47.788;11.858;2023-12-04T04:57:21;-12.40;99.90
26990;DHT22;14537;47.788;11.858;2023-12-04T04:59:46;-12.30;99.90
26990;DHT22;14537;47.788;11.858;2023-12-04T05:02:12;-12.30;99.90
26990;DHT22;14537;47.788;11.858;2023-12-04T05:04:37;-12.20;99.90
26990;DHT22;14537;47.788;11.858;2023-12-04T05:07:03;-12.20;99.90
26990;DHT22;14537;47.788;11.858;2023-12-04T05:09:29;-12.20;99.90
26990;DHT22;14537;47.788;11.858;2023-12-04T05:11:55;-12.20;99.90
26990;DHT22;14537;47.788;11.858;2023-12-04T05:14:20;-12.30;99.90
26990;DHT22;14537;47.788;11.858;2023-12-04T05:16:46;-12.30;99.90
26990;DHT22;14537;47.788;11.858;2023-12-04T05:19:11;-12.20;99.90
26990;DHT22;14537;47.788;11.858;2023-12-04T05:21:37;-12.00;99.90
26990;DHT22;14537;47.788;11.858;2023-12-04T05:24:03;-12.20;99.90
26990;DHT22;14537;47.788;11.858;2023-12-04T05:26:28;-12.30;99.90
26990;DHT22;14537;47.788;11.858;2023-12-04T05:28:54;-12.30;99.90
26990;DHT22;14537;47.788;11.858;2023-12-04T05:31:19;-12.30;99.90
26990;DHT22;14537;47.788;11.858;2023-12-04T05:33:45;-12.30;99.90
26990;DHT22;14537;47.788;11.858;2023-12-04T05:36:11;-12.30;99.90
26990;DHT22;14537;47.788;11.858;2023-12-04T05:38:37;-12.30;99.90
26990;DHT22;14537;47.788;11.858;2023-12-04T05:41:02;-12.40;99.90
26990;DHT22;14537;47.788;11.858;2023-12-04T05:43:28;-12.50;99.90
26990;DHT22;14537;47.788;11.858;2023-12-04T05:45:54;-12.50;99.90
26990;DHT22;14537;47.788;11.858;2023-12-04T05:48:19;-12.30;99.90
26990;DHT22;14537;47.788;11.858;2023-12-04T05:50:45;-12.20;99.90
26990;DHT22;14537;47.788;11.858;2023-12-04T05:53:11;-12.10;99.90
26990;DHT22;14537;47.788;11.858;2023-12-04T05:55:36;-12.00;99.90
26990;DHT22;14537;47.788;11.858;2023-12-04T05:58:02;-12.00;99.90
26990;DHT22;14537;47.788;11.858;2023-12-04T06:00:28;-11.90;99.90
26990;DHT22;14537;47.788;11.858;2023-12-04T06:02:54;-11.80;99.90
26990;DHT22;14537;47.788;11.858;2023-12-04T06:05:19;-11.70;99.90
26990;DHT22;14537;47.788;11.858;2023-12-04T06:07:45;-11.70;99.90
26990;DHT22;14537;47.788;11.858;2023-12-04T06:10:11;-11.70;99.90
26990;DHT22;14537;47.788;11.858;2023-12-04T06:12:36;-11.70;99.90
26990;DHT22;14537;47.788;11.858;2023-12-04T06:15:06;-11.80;99.90
26990;DHT22;14537;47.788;11.858;2023-12-04T06:17:31;-11.80;99.90
26990;DHT22;14537;47.788;11.858;2023-12-04T06:19:57;-11.70;99.90
26990;DHT22;14537;47.788;11.858;2023-12-04T06:22:23;-11.60;99.90
26990;DHT22;14537;47.788;11.858;2023-12-04T06:24:49;-11.70;99.90
26990;DHT22;14537;47.788;11.858;2023-12-04T06:27:16;-11.70;99.90
26990;DHT22;14537;47.788;11.858;2023-12-04T06:29:44;-11.60;99.90
26990;DHT22;14537;47.788;11.858;2023-12-04T06:32:10;-11.50;99.90
26990;DHT22;14537;47.788;11.858;2023-12-04T06:34:52;-11.50;99.90
26990;DHT22;14537;47.788;11.858;2023-12-04T06:37:23;-11.40;99.90
26990;DHT22;14537;47.788;11.858;2023-12-04T06:39:50;-11.30;99.90
26990;DHT22;14537;47.788;11.858;2023-12-04T06:42:18;-11.20;99.90
26990;DHT22;14537;47.788;11.858;2023-12-04T06:44:44;-11.10;99.90
26990;DHT22;14537;47.788;11.858;2023-12-04T06:47:12;-11.10;99.90
26990;DHT22;14537;47.788;11.858;2023-12-04T06:49:42;-11.00;99.90
26990;DHT22;14537;47.788;11.858;2023-12-04T06:52:08;-11.00;99.90
26990;DHT22;14537;47.788;11.858;2023-12-04T06:54:33;-11.00;99.90
26990;DHT22;14537;47.788;11.858;2023-12-04T06:56:59;-11.00;99.90
26990;DHT22;14537;47.788;11.858;2023-12-04T06:59:24;-10.90;99.90
26990;DHT22;14537;47.788;11.858;2023-12-04T07:01:50;-10.90;99.90
26990;DHT22;14537;47.788;11.858;2023-12-04T07:04:16;-10.80;99.90
26990;DHT22;14537;47.788;11.858;2023-12-04T07:06:46;-10.80;99.90
26990;DHT22;14537;47.788;11.858;2023-12-04T07:09:12;-10.70;99.90
26990;DHT22;14537;47.788;11.858;2023-12-04T07:11:37;-10.70;99.90
26990;DHT22;14537;47.788;11.858;2023-12-04T07:14:03;-10.60;99.90
26990;DHT22;14537;47.788;11.858;2023-12-04T07:16:28;-10.40;99.90
26990;DHT22;14537;47.788;11.858;2023-12-04T07:18:54;-10.30;99.90
26990;DHT22;14537;47.788;11.858;2023-12-04T07:21:20;-10.10;99.90
26990;DHT22;14537;47.788;11.858;2023-12-04T07:23:46;-10.10;99.90
26990;DHT22;14537;47.788;11.858;2023-12-04T07:26:12;-10.00;99.90
26990;DHT22;14537;47.788;11.858;2023-12-04T07:28:38;-10.00;99.90
26990;DHT22;14537;47.788;11.858;2023-12-04T07:31:04;-10.00;99.90
26990;DHT22;14537;47.788;11.858;2023-12-04T07:33:29;-9.90;99.90
26990;DHT22;14537;47.788;11.858;2023-12-04T07:35:55;-9.90;99.90
26990;DHT22;14537;47.788;11.858;2023-12-04T07:38:21;-9.80;99.90
26990;DHT22;14537;47.788;11.858;2023-12-04T07:40:47;-9.70;99.90
26990;DHT22;14537;47.788;11.858;2023-12-04T07:43:13;-9.70;99.90
26990;DHT22;14537;47.788;11.858;2023-12-04T07:45:40;-9.70;99.90
26990;DHT22;14537;47.788;11.858;2023-12-04T07:48:06;-9.60;99.90
26990;DHT22;14537;47.788;11.858;2023-12-04T07:50:32;-9.40;99.90
26990;DHT22;14537;47.788;11.858;2023-12-04T07:52:58;-9.30;99.90
26990;DHT22;14537;47.788;11.858;2023-12-04T07:55:23;-9.20;99.90
26990;DHT22;14537;47.788;11.858;2023-12-04T07:57:49;-9.20;99.90
26990;DHT22;14537;47.788;11.858;2023-12-04T08:00:16;-9.10;99.90
26990;DHT22;14537;47.788;11.858;2023-12-04T08:02:43;-9.10;99.90
26990;DHT22;14537;47.788;11.858;2023-12-04T08:05:10;-9.00;99.90
26990;DHT22;14537;47.788;11.858;2023-12-04T08:07:35;-8.90;99.90
26990;DHT22;14537;47.788;11.858;2023-12-04T08:10:01;-8.80;99.90
26990;DHT22;14537;47.788;11.858;2023-12-04T08:12:27;-8.60;99.90
26990;DHT22;14537;47.788;11.858;2023-12-04T08:14:53;-8.40;99.90
26990;DHT22;14537;47.788;11.858;2023-12-04T08:17:18;-8.30;99.90
26990;DHT22;14537;47.788;11.858;2023-12-04T08:19:44;-8.20;99.90
26990;DHT22;14537;47.788;11.858;2023-12-04T08:22:10;-8.10;99.90
26990;DHT22;14537;47.788;11.858;2023-12-04T08:24:35;-8.10;99.90
26990;DHT22;14537;47.788;11.858;2023-12-04T08:27:01;-8.00;99.90
26990;DHT22;14537;47.788;11.858;2023-12-04T08:29:26;-7.90;99.90
26990;DHT22;14537;47.788;11.858;2023-12-04T08:31:52;-7.80;99.90
26990;DHT22;14537;47.788;11.858;2023-12-04T08:34:18;-7.80;99.90
26990;DHT22;14537;47.788;11.858;2023-12-04T08:36:43;-7.80;99.90
26990;DHT22;14537;47.788;11.858;2023-12-04T08:39:09;-7.80;99.90
26990;DHT22;14537;47.788;11.858;2023-12-04T08:41:35;-7.80;99.90
26990;DHT22;14537;47.788;11.858;2023-12-04T08:44:00;-7.70;99.90
26990;DHT22;14537;47.788;11.858;2023-12-04T08:46:26;-7.60;99.90
26990;DHT22;14537;47.788;11.858;2023-12-04T08:48:51;-7.50;99.90
26990;DHT22;14537;47.788;11.858;2023-12-04T08:51:17;-7.20;99.90
26990;DHT22;14537;47.788;11.858;2023-12-04T08:53:43;-7.10;99.90
26990;DHT22;14537;47.788;11.858;2023-12-04T08:56:09;-7.00;99.90
26990;DHT22;14537;47.788;11.858;2023-12-04T08:58:35;-6.80;99.90
26990;DHT22;14537;47.788;11.858;2023-12-04T09:01:01;-6.80;99.90
26990;DHT22;14537;47.788;11.858;2023-12-04T09:03:27;-6.60;99.90
26990;DHT22;14537;47.788;11.858;2023-12-04T09:05:52;-6.50;99.90
26990;DHT22;14537;47.788;11.858;2023-12-04T09:08:22;-6.40;99.90
26990;DHT22;14537;47.788;11.858;2023-12-04T09:10:48;-6.30;99.90
26990;DHT22;14537;47.788;11.858;2023-12-04T09:13:14;-6.20;99.90
26990;DHT22;14537;47.788;11.858;2023-12-04T09:15:40;-6.10;99.90
26990;DHT22;14537;47.788;11.858;2023-12-04T09:18:05;-6.00;99.90
26990;DHT22;14537;47.788;11.858;2023-12-04T09:20:31;-5.90;99.90
26990;DHT22;14537;47.788;11.858;2023-12-04T09:22:56;-5.80;99.90
26990;DHT22;14537;47.788;11.858;2023-12-04T09:25:22;-5.70;99.90
26990;DHT22;14537;47.788;11.858;2023-12-04T09:27:48;-5.60;99.90
26990;DHT22;14537;47.788;11.858;2023-12-04T09:30:13;-5.40;99.90
26990;DHT22;14537;47.788;11.858;2023-12-04T09:32:39;-5.30;99.90
26990;DHT22;14537;47.788;11.858;2023-12-04T09:35:05;-5.10;99.90
26990;DHT22;14537;47.788;11.858;2023-12-04T09:37:31;-5.00;99.90
26990;DHT22;14537;47.788;11.858;2023-12-04T09:39:57;-4.90;99.90
26990;DHT22;14537;47.788;11.858;2023-12-04T09:42:23;-4.80;99.90
26990;DHT22;14537;47.788;11.858;2023-12-04T09:44:48;-4.70;99.90
26990;DHT22;14537;47.788;11.858;2023-12-04T09:47:17;-4.50;99.90
26990;DHT22;14537;47.788;11.858;2023-12-04T09:49:44;-4.40;99.90
26990;DHT22;14537;47.788;11.858;2023-12-04T09:52:11;-4.20;99.90
26990;DHT22;14537;47.788;11.858;2023-12-04T09:54:37;-4.10;99.90
26990;DHT22;14537;47.788;11.858;2023-12-04T09:57:05;-4.10;99.90
26990;DHT22;14537;47.788;11.858;2023-12-04T09:59:31;-4.00;99.90
26990;DHT22;14537;47.788;11.858;2023-12-04T10:01:57;-4.00;99.90
26990;DHT22;14537;47.788;11.858;2023-12-04T10:04:24;-3.90;99.90
26990;DHT22;14537;47.788;11.858;2023-12-04T10:06:51;-3.80;99.90
26990;DHT22;14537;47.788;11.858;2023-12-04T10:09:19;-3.80;99.90
26990;DHT22;14537;47.788;11.858;2023-12-04T10:11:49;-3.70;99.90
26990;DHT22;14537;47.788;11.858;2023-12-04T10:14:19;-3.80;99.90
26990;DHT22;14537;47.788;11.858;2023-12-04T10:16:45;-3.70;99.90
26990;DHT22;14537;47.788;11.858;2023-12-04T10:19:29;-3.50;99.90
26990;DHT22;14537;47.788;11.858;2023-12-04T10:21:59;-3.40;99.90
26990;DHT22;14537;47.788;11.858;2023-12-04T10:24:38;-3.30;99.90
26990;DHT22;14537;47.788;11.858;2023-12-04T10:27:05;-3.20;99.90
26990;DHT22;14537;47.788;11.858;2023-12-04T10:29:49;-3.20;99.90
26990;DHT22;14537;47.788;11.858;2023-12-04T10:32:20;-3.10;99.90
26990;DHT22;14537;47.788;11.858;2023-12-04T10:34:47;-3.10;99.90
26990;DHT22;14537;47.788;11.858;2023-12-04T10:37:13;-3.10;99.90
26990;DHT22;14537;47.788;11.858;2023-12-04T10:39:50;-3.20;99.90
26990;DHT22;14537;47.788;11.858;2023-12-04T10:42:29;-3.00;99.90
26990;DHT22;14537;47.788;11.858;2023-12-04T10:44:56;-2.80;99.90
26990;DHT22;14537;47.788;11.858;2023-12-04T10:47:29;-2.70;99.90
26990;DHT22;14537;47.788;11.858;2023-12-04T10:49:57;-2.70;99.90
26990;DHT22;14537;47.788;11.858;2023-12-04T10:52:23;-2.60;99.90
26990;DHT22;14537;47.788;11.858;2023-12-04T10:54:49;-2.50;99.90
26990;DHT22;14537;47.788;11.858;2023-12-04T10:57:27;-2.50;99.90
26990;DHT22;14537;47.788;11.858;2023-12-04T10:59:58;-2.30;99.90
26990;DHT22;14537;47.788;11.858;2023-12-04T11:02:29;-2.20;99.90
26990;DHT22;14537;47.788;11.858;2023-12-04T11:05:08;-2.20;99.90
26990;DHT22;14537;47.788;11.858;2023-12-04T11:07:41;-2.10;99.90
26990;DHT22;14537;47.788;11.858;2023-12-04T11:10:11;-2.00;99.90
26990;DHT22;14537;47.788;11.858;2023-12-04T11:12:40;-2.00;99.90
26990;DHT22;14537;47.788;11.858;2023-12-04T11:15:14;-1.90;99.90
26990;DHT22;14537;47.788;11.858;2023-12-04T11:17:43;-2.00;99.90
26990;DHT22;14537;47.788;11.858;2023-12-04T11:20:15;-2.00;99.90
26990;DHT22;14537;47.788;11.858;2023-12-04T11:22:43;-2.00;99.90
26990;DHT22;14537;47.788;11.858;2023-12-04T11:25:11;-2.00;99.90
26990;DHT22;14537;47.788;11.858;2023-12-04T11:27:38;-2.00;99.90
26990;DHT22;14537;47.788;11.858;2023-12-04T11:30:05;-2.00;99.90
26990;DHT22;14537;47.788;11.858;2023-12-04T11:32:32;-1.90;99.90
26990;DHT22;14537;47.788;11.858;2023-12-04T11:35:14;-1.90;99.90
26990;DHT22;14537;47.788;11.858;2023-12-04T11:37:40;-2.00;99.90
26990;DHT22;14537;47.788;11.858;2023-12-04T11:40:06;-1.90;99.90
26990;DHT22;14537;47.788;11.858;2023-12-04T11:42:33;-1.90;99.90
26990;DHT22;14537;47.788;11.858;2023-12-04T11:44:59;-1.70;99.90
26990;DHT22;14537;47.788;11.858;2023-12-04T11:47:24;-1.60;99.90
26990;DHT22;14537;47.788;11.858;2023-12-04T11:49:50;-1.50;99.90
26990;DHT22;14537;47.788;11.858;2023-12-04T11:52:15;-1.50;99.90
26990;DHT22;14537;47.788;11.858;2023-12-04T11:55:08;-1.40;99.90
26990;DHT22;14537;47.788;11.858;2023-12-04T11:57:38;-1.40;99.90
26990;DHT22;14537;47.788;11.858;2023-12-04T12:00:08;-1.40;99.90
26990;DHT22;14537;47.788;11.858;2023-12-04T12:02:35;-1.30;99.90
26990;DHT22;14537;47.788;11.858;2023-12-04T12:05:00;-1.40;99.90
26990;DHT22;14537;47.788;11.858;2023-12-04T12:07:27;-1.40;99.90
26990;DHT22;14537;47.788;11.858;2023-12-04T12:09:53;-1.80;99.90
26990;DHT22;14537;47.788;11.858;2023-12-04T12:12:18;-1.80;99.90
26990;DHT22;14537;47.788;11.858;2023-12-04T12:14:44;-1.70;99.90
26990;DHT22;14537;47.788;11.858;2023-12-04T12:17:10;-1.60;99.90
26990;DHT22;14537;47.788;11.858;2023-12-04T12:19:35;-1.50;99.90
26990;DHT22;14537;47.788;11.858;2023-12-04T12:22:03;-1.40;99.90
26990;DHT22;14537;47.788;11.858;2023-12-04T12:24:29;-1.30;99.90
26990;DHT22;14537;47.788;11.858;2023-12-04T12:26:54;-1.30;99.90
26990;DHT22;14537;47.788;11.858;2023-12-04T12:29:20;-1.10;99.90
26990;DHT22;14537;47.788;11.858;2023-12-04T12:31:46;-1.00;99.90
26990;DHT22;14537;47.788;11.858;2023-12-04T12:34:12;-1.00;99.90
26990;DHT22;14537;47.788;11.858;2023-12-04T12:36:37;-0.90;99.90
26990;DHT22;14537;47.788;11.858;2023-12-04T12:39:03;-1.00;99.90
26990;DHT22;14537;47.788;11.858;2023-12-04T12:41:30;-1.00;99.90
26990;DHT22;14537;47.788;11.858;2023-12-04T12:43:56;-1.00;99.90
26990;DHT22;14537;47.788;11.858;2023-12-04T12:46:22;-1.10;99.90
26990;DHT22;14537;47.788;11.858;2023-12-04T12:48:47;-1.00;99.90
26990;DHT22;14537;47.788;11.858;2023-12-04T12:51:13;-0.90;99.90
26990;DHT22;14537;47.788;11.858;2023-12-04T12:53:39;-0.80;99.90
26990;DHT22;14537;47.788;11.858;2023-12-04T12:56:06;-0.80;99.90
26990;DHT22;14537;47.788;11.858;2023-12-04T12:58:33;-0.80;99.90
26990;DHT22;14537;47.788;11.858;2023-12-04T13:01:00;-0.70;99.90
26990;DHT22;14537;47.788;11.858;2023-12-04T13:03:25;-0.60;99.90
26990;DHT22;14537;47.788;11.858;2023-12-04T13:05:51;-0.60;99.90
26990;DHT22;14537;47.788;11.858;2023-12-04T13:08:17;-0.70;99.90
26990;DHT22;14537;47.788;11.858;2023-12-04T13:10:42;-0.70;99.90
26990;DHT22;14537;47.788;11.858;2023-12-04T13:13:14;-0.70;99.90
26990;DHT22;14537;47.788;11.858;2023-12-04T13:15:41;-1.10;99.90
26990;DHT22;14537;47.788;11.858;2023-12-04T13:18:07;-1.40;99.90
26990;DHT22;14537;47.788;11.858;2023-12-04T13:20:32;-1.40;99.90
26990;DHT22;14537;47.788;11.858;2023-12-04T13:23:00;-1.30;99.90
26990;DHT22;14537;47.788;11.858;2023-12-04T13:25:26;-1.10;99.90
26990;DHT22;14537;47.788;11.858;2023-12-04T13:27:51;-1.00;99.90
26990;DHT22;14537;47.788;11.858;2023-12-04T13:30:17;-1.00;99.90
26990;DHT22;14537;47.788;11.858;2023-12-04T13:32:43;-1.00;99.90
26990;DHT22;14537;47.788;11.858;2023-12-04T13:35:08;-0.90;99.90
26990;DHT22;14537;47.788;11.858;2023-12-04T13:37:34;-0.90;99.90
26990;DHT22;14537;47.788;11.858;2023-12-04T13:40:02;-0.80;99.90
26990;DHT22;14537;47.788;11.858;2023-12-04T13:42:38;-0.90;99.90
26990;DHT22;14537;47.788;11.858;2023-12-04T13:45:22;-0.90;99.90
26990;DHT22;14537;47.788;11.858;2023-12-04T13:47:48;-0.90;99.90
26990;DHT22;14537;47.788;11.858;2023-12-04T13:50:14;-0.90;99.90
26990;DHT22;14537;47.788;11.858;2023-12-04T13:52:40;-1.00;99.90
26990;DHT22;14537;47.788;11.858;2023-12-04T13:55:08;-1.00;99.90
26990;DHT22;14537;47.788;11.858;2023-12-04T13:57:44;-1.00;99.90
26990;DHT22;14537;47.788;11.858;2023-12-04T14:00:26;-1.10;99.90
26990;DHT22;14537;47.788;11.858;2023-12-04T14:02:52;-1.10;99.90
26990;DHT22;14537;47.788;11.858;2023-12-04T14:05:33;-1.10;99.90
26990;DHT22;14537;47.788;11.858;2023-12-04T14:07:59;-1.10;99.90
26990;DHT22;14537;47.788;11.858;2023-12-04T14:10:26;-1.10;99.90
26990;DHT22;14537;47.788;11.858;2023-12-04T14:12:52;-1.10;99.90
26990;DHT22;14537;47.788;11.858;2023-12-04T14:15:18;-1.10;99.90
26990;DHT22;14537;47.788;11.858;2023-12-04T14:17:44;-1.10;99.90
26990;DHT22;14537;47.788;11.858;2023-12-04T14:20:12;-1.10;99.90
26990;DHT22;14537;47.788;11.858;2023-12-04T14:22:44;-1.00;99.90
26990;DHT22;14537;47.788;11.858;2023-12-04T14:25:11;-1.00;99.90
26990;DHT22;14537;47.788;11.858;2023-12-04T14:27:36;-1.00;99.90
26990;DHT22;14537;47.788;11.858;2023-12-04T14:30:06;-1.00;99.90
26990;DHT22;14537;47.788;11.858;2023-12-04T14:32:34;-1.00;99.90
26990;DHT22;14537;47.788;11.858;2023-12-04T14:34:59;-1.20;99.90
26990;DHT22;14537;47.788;11.858;2023-12-04T14:37:26;-1.30;99.90
26990;DHT22;14537;47.788;11.858;2023-12-04T14:39:51;-1.40;99.90
26990;DHT22;14537;47.788;11.858;2023-12-04T14:42:17;-1.60;99.90
26990;DHT22;14537;47.788;11.858;2023-12-04T14:44:43;-1.70;99.90
26990;DHT22;14537;47.788;11.858;2023-12-04T14:47:08;-1.80;99.90
26990;DHT22;14537;47.788;11.858;2023-12-04T14:49:34;-1.90;99.90
26990;DHT22;14537;47.788;11.858;2023-12-04T14:52:00;-1.90;99.90
26990;DHT22;14537;47.788;11.858;2023-12-04T14:54:26;-2.00;99.90
26990;DHT22;14537;47.788;11.858;2023-12-04T14:57:20;-2.10;99.90
26990;DHT22;14537;47.788;11.858;2023-12-04T15:00:11;-2.20;99.90
26990;DHT22;14537;47.788;11.858;2023-12-04T15:02:55;-2.30;99.90
26990;DHT22;14537;47.788;11.858;2023-12-04T15:05:21;-2.40;99.90
26990;DHT22;14537;47.788;11.858;2023-12-04T15:07:59;-2.60;99.90